Time;durP1;ratioP1;P1;durP2;ratioP2;P2;SDS_P1;SDS_P2;PMS_P1;PMS_P2;Temp;Humidity;BMP_temperature;BMP_pressure;BME280_temperature;BME280_humidity;BME280_pressure;Samples;Min_cycle;Max_cycle;Signal;HPM_P1;HPM_P2
2022/12/01 00:01:19;;;;;;;62.58;21.80;;;6.10;99.90;;;;;;4233568;28;20044;-88
2022/12/01 00:03:21;;;;;;;64.72;22.33;;;5.60;99.90;;;;;;4212930;28;20048;-88
2022/12/01 00:05:22;;;;;;;62.03;22.63;;;6.10;99.90;;;;;;4222106;28;20048;-88
2022/12/01 00:07:23;;;;;;;57.97;20.92;;;6.10;99.90;;;;;;4219797;28;20620;-87
2022/12/01 00:11:44;;;;;;;;;;;6.10;99.90;;;;;;4231486;28;20051;-88
2022/12/01 00:13:46;;;;;;;63.38;21.63;;;6.10;99.90;;;;;;4233213;28;20496;-88
2022/12/01 00:15:47;;;;;;;64.35;22.20;;;6.20;99.90;;;;;;4250287;27;20047;-88
2022/12/01 00:17:48;;;;;;;64.85;24.13;;;6.10;99.90;;;;;;4230262;28;20083;-88
2022/12/01 00:19:49;;;;;;;71.88;24.48;;;6.10;99.90;;;;;;4230512;28;20396;-87
2022/12/01 00:21:50;;;;;;;65.05;23.38;;;6.10;99.90;;;;;;4229861;28;20071;-87
2022/12/01 00:23:56;;;;;;;66.80;24.20;;;6.10;99.90;;;;;;4233394;28;20047;-88
2022/12/01 00:26:04;;;;;;;70.80;23.30;;;6.10;99.90;;;;;;4221703;28;20047;-88
2022/12/01 00:28:05;;;;;;;68.05;22.25;;;6.10;99.90;;;;;;4221865;28;20443;-87
2022/12/01 00:30:09;;;;;;;63.15;22.08;;;6.10;99.90;;;;;;4221236;28;20097;-88
2022/12/01 00:32:10;;;;;;;60.95;22.60;;;6.10;99.90;;;;;;4221154;28;20407;-88
2022/12/01 00:34:22;;;;;;;65.38;23.38;;;6.10;99.90;;;;;;4220942;27;20039;-87
2022/12/01 00:36:23;;;;;;;68.85;22.05;;;6.50;99.90;;;;;;4231657;28;20474;-87
2022/12/01 00:38:25;;;;;;;66.80;21.70;;;6.10;99.90;;;;;;4216999;28;20428;-87
2022/12/01 00:40:25;;;;;;;66.30;24.02;;;6.30;99.90;;;;;;4231289;28;20422;-87
2022/12/01 00:42:26;;;;;;;63.58;23.85;;;6.10;99.90;;;;;;4229945;28;20064;-87
2022/12/01 00:44:27;;;;;;;62.70;23.02;;;6.10;99.90;;;;;;4245656;27;20048;-87
2022/12/01 00:46:28;;;;;;;67.10;23.55;;;6.40;99.90;;;;;;4230434;28;20101;-88
2022/12/01 00:48:28;;;;;;;67.68;24.02;;;6.30;99.90;;;;;;4232489;28;20039;-88
2022/12/01 00:50:29;;;;;;;64.88;23.88;;;6.10;99.90;;;;;;4219824;28;20047;-88
2022/12/01 00:52:30;;;;;;;69.53;24.30;;;6.10;99.90;;;;;;4220155;28;20101;-88
2022/12/01 00:54:31;;;;;;;74.20;24.58;;;6.10;99.90;;;;;;4216504;28;20047;-88
2022/12/01 00:56:32;;;;;;;70.55;22.83;;;6.50;99.90;;;;;;4217881;28;20051;-87
2022/12/01 00:58:33;;;;;;;69.80;24.42;;;6.10;99.90;;;;;;4228617;28;20040;-87
2022/12/01 01:00:37;;;;;;;63.65;22.33;;;6.10;99.90;;;;;;4228542;28;20411;-88
2022/12/01 01:02:39;;;;;;;64.72;22.33;;;6.10;99.90;;;;;;4217807;28;20059;-87
2022/12/01 01:04:41;;;;;;;66.68;21.67;;;6.20;99.90;;;;;;4224308;28;20535;-87
2022/12/01 01:06:42;;;;;;;74.70;26.88;;;6.10;99.90;;;;;;4221108;28;20431;-87
2022/12/01 01:08:43;;;;;;;66.43;24.15;;;6.10;99.90;;;;;;4229013;28;20032;-87
2022/12/01 01:10:46;;;;;;;70.90;22.85;;;6.00;99.90;;;;;;4230006;28;20134;-87
2022/12/01 01:12:47;;;;;;;73.93;23.33;;;6.40;99.90;;;;;;4232199;28;20475;-87
2022/12/01 01:14:47;;;;;;;73.03;25.23;;;6.00;99.90;;;;;;4217589;28;20048;-87
2022/12/01 01:16:48;;;;;;;62.38;23.63;;;6.00;99.90;;;;;;4229010;28;20568;-87
2022/12/01 01:18:49;;;;;;;80.05;24.95;;;6.00;99.90;;;;;;4232340;28;20036;-87
2022/12/01 01:21:01;;;;;;;67.63;24.88;;;6.00;99.90;;;;;;4215963;28;20048;-87
2022/12/01 01:23:01;;;;;;;70.50;25.75;;;6.10;99.90;;;;;;4211223;28;20516;-87
2022/12/01 01:25:02;;;;;;;70.38;23.98;;;6.00;99.90;;;;;;4220267;28;20044;-86
2022/12/01 01:27:04;;;;;;;69.68;22.88;;;6.00;99.90;;;;;;4227747;28;20464;-87
2022/12/01 01:29:06;;;;;;;62.72;23.35;;;6.00;99.90;;;;;;4215740;28;20043;-87
2022/12/01 01:31:09;;;;;;;67.88;22.80;;;6.20;99.90;;;;;;4228030;28;20051;-87
2022/12/01 01:33:10;;;;;;;67.55;21.70;;;6.00;99.90;;;;;;4226835;28;20566;-87
2022/12/01 01:35:10;;;;;;;62.33;23.02;;;6.00;99.90;;;;;;4231990;28;20052;-87
2022/12/01 01:37:12;;;;;;;73.82;25.10;;;6.10;99.90;;;;;;4218254;28;20040;-87
2022/12/01 01:39:14;;;;;;;70.35;24.17;;;6.10;99.90;;;;;;4230731;28;20399;-87
2022/12/01 01:41:17;;;;;;;71.13;24.85;;;6.00;99.90;;;;;;4218869;28;20047;-87
2022/12/01 01:43:44;;;;;;;68.78;23.42;;;6.00;99.90;;;;;;4228319;28;20124;-88
2022/12/01 01:45:45;;;;;;;65.78;22.02;;;6.00;99.90;;;;;;4211889;28;20060;-87
2022/12/01 01:47:48;;;;;;;62.60;21.50;;;6.00;99.90;;;;;;4225246;28;20543;-87
2022/12/01 01:49:49;;;;;;;65.60;22.88;;;6.00;99.90;;;;;;4227218;28;20415;-87
2022/12/01 01:51:52;;;;;;;63.70;23.25;;;6.50;99.90;;;;;;4228797;28;20056;-87
2022/12/01 01:54:00;;;;;;;63.22;27.02;;;6.00;99.90;;;;;;4221646;28;20031;-87
2022/12/01 01:56:02;;;;;;;69.05;23.27;;;6.00;99.90;;;;;;4227561;28;20073;-86
2022/12/01 01:58:09;;;;;;;66.20;21.85;;;6.00;99.90;;;;;;4222800;28;20488;-87
2022/12/01 02:00:15;;;;;;;67.75;25.40;;;6.00;99.90;;;;;;4219217;28;20047;-86
2022/12/01 02:02:16;;;;;;;71.07;23.88;;;6.00;99.90;;;;;;4236218;27;20075;-87
2022/12/01 02:04:19;;;;;;;76.10;22.65;;;6.00;99.90;;;;;;4217967;28;20070;-87
2022/12/01 02:06:22;;;;;;;63.42;22.30;;;5.90;99.90;;;;;;4223928;28;20510;-87
2022/12/01 02:08:22;;;;;;;70.90;24.38;;;5.90;99.90;;;;;;4230802;28;20051;-88
2022/12/01 02:10:39;;;;;;;66.28;25.20;;;5.90;99.90;;;;;;4226981;28;20043;-87
2022/12/01 02:13:01;;;;;;;75.57;24.20;;;5.90;99.90;;;;;;4230573;28;20470;-87
2022/12/01 02:15:22;;;;;;;72.88;24.13;;;5.90;99.90;;;;;;4230822;28;20495;-87
2022/12/01 02:17:36;;;;;;;71.72;23.08;;;5.90;99.90;;;;;;4217196;28;20458;-86
2022/12/01 02:20:19;;;;;;;71.65;25.40;;;5.90;99.90;;;;;;4220767;28;20071;-86
2022/12/01 02:22:38;;;;;;;64.30;21.55;;;5.90;99.90;;;;;;4204644;28;20079;-87
2022/12/01 02:24:53;;;;;;;74.45;25.33;;;5.90;99.90;;;;;;4221281;28;20048;-86
2022/12/01 02:27:22;;;;;;;68.75;25.20;;;5.90;99.90;;;;;;4213936;28;20101;-86
2022/12/01 02:29:32;;;;;;;;;;;5.90;99.90;;;;;;4220322;28;20048;-86
2022/12/01 02:31:52;;;;;;;76.07;24.30;;;6.00;99.90;;;;;;4228780;28;19926;-86
2022/12/01 02:34:20;;;;;;;71.97;24.83;;;5.90;99.90;;;;;;4228708;28;20040;-86
2022/12/01 02:36:30;;;;;;;72.60;24.88;;;5.90;99.90;;;;;;4221818;28;20122;-86
2022/12/01 02:38:55;;;;;;;72.38;23.75;;;5.90;99.90;;;;;;4228429;28;20099;-85
2022/12/01 02:41:23;;;;;;;75.25;24.75;;;5.90;99.90;;;;;;4221920;28;20044;-86
2022/12/01 02:43:30;;;;;;;72.53;23.30;;;5.90;99.90;;;;;;4218532;28;20044;-86
2022/12/01 02:45:47;;;;;;;78.32;22.77;;;5.90;99.90;;;;;;4231458;28;20047;-86
2022/12/01 02:47:52;;;;;;;70.10;24.55;;;5.90;99.90;;;;;;4227345;28;20131;-86
2022/12/01 02:49:56;;;;;;;73.75;23.67;;;5.90;99.90;;;;;;4226970;28;20500;-86
2022/12/01 02:51:58;;;;;;;75.80;24.30;;;5.90;99.90;;;;;;4230830;28;20032;-86
2022/12/01 02:54:02;;;;;;;67.78;23.33;;;5.90;99.90;;;;;;4230575;28;20038;-86
2022/12/01 02:56:06;;;;;;;80.22;26.88;;;6.20;99.90;;;;;;4219590;28;20556;-86
2022/12/01 02:58:14;;;;;;;73.88;23.42;;;5.90;99.90;;;;;;4218724;28;20039;-86
2022/12/01 03:00:16;;;;;;;71.20;23.98;;;5.90;99.90;;;;;;4217949;28;20051;-87
2022/12/01 03:02:41;;;;;;;73.28;25.73;;;5.90;99.90;;;;;;4227202;28;20055;-87
2022/12/01 03:05:04;;;;;;;66.68;23.73;;;5.90;99.90;;;;;;4226830;28;20448;-86
2022/12/01 03:07:43;;;;;;;74.20;23.60;;;5.90;99.90;;;;;;4225807;28;20051;-86
2022/12/01 03:10:03;;;;;;;62.45;22.50;;;5.90;99.90;;;;;;4212024;28;20047;-86
2022/12/01 03:12:22;;;;;;;80.80;24.67;;;5.90;99.90;;;;;;4217673;28;20136;-86
2022/12/01 03:14:49;;;;;;;71.63;23.33;;;5.90;99.90;;;;;;4227323;28;20544;-86
2022/12/01 03:16:53;;;;;;;73.97;24.13;;;5.90;99.90;;;;;;4224865;28;20062;-86
2022/12/01 03:19:04;;;;;;;70.43;25.25;;;5.90;99.90;;;;;;4225432;28;20058;-87
2022/12/01 03:21:11;;;;;;;67.10;24.25;;;5.90;99.90;;;;;;4223063;28;20103;-86
2022/12/01 03:23:16;;;;;;;67.28;23.65;;;5.90;99.90;;;;;;4222987;28;20060;-86
2022/12/01 03:25:20;;;;;;;64.57;23.60;;;5.90;99.90;;;;;;4225325;28;20051;-87
2022/12/01 03:27:26;;;;;;;75.38;25.10;;;5.90;99.90;;;;;;4221238;28;20527;-86
2022/12/01 03:29:37;;;;;;;68.82;23.67;;;5.90;99.90;;;;;;4220120;28;20524;-87
2022/12/01 03:31:46;;;;;;;62.60;23.63;;;5.90;99.90;;;;;;4214774;28;20044;-87
2022/12/01 03:33:54;;;;;;;59.70;21.98;;;5.90;99.90;;;;;;4214417;28;20088;-86
2022/12/01 03:36:01;;;;;;;72.00;23.77;;;5.90;99.90;;;;;;4227311;28;20554;-86
2022/12/01 03:38:10;;;;;;;67.50;22.08;;;5.90;99.90;;;;;;4232226;28;20529;-87
2022/12/01 03:40:17;;;;;;;65.20;22.83;;;5.90;99.90;;;;;;4228404;28;20126;-86
2022/12/01 03:42:30;;;;;;;67.03;22.75;;;5.90;99.90;;;;;;4229852;28;20051;-86
2022/12/01 03:44:43;;;;;;;66.03;22.23;;;5.90;99.90;;;;;;4219371;28;20542;-87
2022/12/01 03:47:15;;;;;;;67.75;22.95;;;5.90;99.90;;;;;;4216406;28;20412;-86
2022/12/01 03:49:17;;;;;;;71.55;24.30;;;5.90;99.90;;;;;;4226605;28;20389;-86
2022/12/01 03:51:44;;;;;;;65.53;23.77;;;5.90;99.90;;;;;;4223343;28;20063;-86
2022/12/01 03:53:58;;;;;;;65.93;21.73;;;5.90;99.90;;;;;;4178229;28;20484;-85
2022/12/01 03:56:03;;;;;;;68.70;22.10;;;5.90;99.90;;;;;;4218725;28;20051;-86
2022/12/01 03:58:12;;;;;;;75.50;23.60;;;5.90;99.90;;;;;;4230589;28;20047;-85
2022/12/01 04:00:15;;;;;;;;;;;5.90;99.90;;;;;;4215325;28;20098;-86
2022/12/01 04:02:17;;;;;;;64.00;21.38;;;5.80;99.90;;;;;;4228305;28;20282;-86
2022/12/01 04:04:18;;;;;;;69.43;23.02;;;5.90;99.90;;;;;;4217857;28;20508;-86
2022/12/01 04:06:19;;;;;;;65.50;22.00;;;5.90;99.90;;;;;;4214282;28;20116;-86
2022/12/01 04:08:20;;;;;;;72.32;22.83;;;5.90;99.90;;;;;;4231798;28;20047;-85
2022/12/01 04:10:22;;;;;;;75.85;22.58;;;5.90;99.90;;;;;;4218613;28;20044;-85
2022/12/01 04:12:28;;;;;;;69.80;22.95;;;5.90;99.90;;;;;;4220357;28;20040;-84
2022/12/01 04:14:29;;;;;;;76.68;24.33;;;5.90;99.90;;;;;;4226121;28;20512;-85
2022/12/01 04:16:30;;;;;;;70.38;22.83;;;5.90;99.90;;;;;;4230106;28;20048;-86
2022/12/01 04:18:30;;;;;;;68.50;23.63;;;5.90;99.90;;;;;;4228067;28;20105;-86
2022/12/01 04:20:31;;;;;;;68.32;23.20;;;5.90;99.90;;;;;;4228015;28;20052;-87
2022/12/01 04:22:33;;;;;;;72.05;23.10;;;6.30;99.90;;;;;;4217906;28;20135;-86
2022/12/01 04:24:33;;;;;;;67.60;23.08;;;5.90;99.90;;;;;;4229565;28;20094;-86
2022/12/01 04:26:36;;;;;;;63.90;22.98;;;5.90;99.90;;;;;;4232685;28;20494;-86
2022/12/01 04:28:38;;;;;;;64.07;22.08;;;5.90;99.90;;;;;;4229909;28;20054;-86
2022/12/01 04:30:38;;;;;;;70.45;24.08;;;5.90;99.90;;;;;;4229891;28;20480;-87
2022/12/01 04:32:43;;;;;;;61.92;22.85;;;5.90;99.90;;;;;;4232852;28;20067;-86
2022/12/01 04:34:44;;;;;;;63.97;20.25;;;5.90;99.90;;;;;;4222165;28;20048;-86
2022/12/01 04:36:45;;;;;;;64.05;20.90;;;5.90;99.90;;;;;;4221421;28;20059;-85
2022/12/01 04:38:45;;;;;;;56.30;21.25;;;5.90;99.90;;;;;;4222080;28;20047;-86
2022/12/01 04:40:47;;;;;;;96.78;22.65;;;5.90;99.90;;;;;;4223683;28;20059;-86
2022/12/01 04:42:49;;;;;;;63.13;21.27;;;6.50;99.90;;;;;;4229585;28;20062;-84
2022/12/01 04:44:49;;;;;;;64.13;21.75;;;5.90;99.90;;;;;;4222914;28;20075;-86
2022/12/01 04:46:51;;;;;;;62.97;22.83;;;5.90;99.90;;;;;;4230072;28;20035;-85
2022/12/01 04:48:52;;;;;;;58.88;20.63;;;5.90;99.90;;;;;;4220092;28;20043;-85
2022/12/01 04:50:54;;;;;;;65.72;21.50;;;6.00;99.90;;;;;;4228349;28;20397;-86
2022/12/01 04:52:54;;;;;;;64.18;22.98;;;6.00;99.90;;;;;;4216204;28;20056;-85
2022/12/01 04:54:55;;;;;;;66.85;21.60;;;6.20;99.90;;;;;;4212979;28;20040;-85
2022/12/01 04:56:55;;;;;;;68.80;22.83;;;6.10;99.90;;;;;;4201902;28;20067;-86
2022/12/01 04:58:58;;;;;;;65.40;22.40;;;5.90;99.90;;;;;;4182742;28;20049;-85
2022/12/01 05:01:03;;;;;;;61.78;21.77;;;6.00;99.90;;;;;;4199652;28;20049;-86
2022/12/01 05:03:05;;;;;;;61.45;23.13;;;5.90;99.90;;;;;;4201588;28;20052;-86
2022/12/01 05:05:06;;;;;;;63.75;21.88;;;5.90;99.90;;;;;;4203514;28;20048;-85
2022/12/01 05:07:07;;;;;;;63.17;21.35;;;5.80;99.90;;;;;;4201349;28;20087;-86
2022/12/01 05:09:12;;;;;;;66.75;23.15;;;5.80;99.90;;;;;;4212183;28;20533;-86
2022/12/01 05:11:14;;;;;;;70.47;24.52;;;5.70;99.90;;;;;;4214725;28;20112;-86
2022/12/01 05:13:16;;;;;;;66.78;21.45;;;5.70;99.90;;;;;;4201589;28;20044;-86
2022/12/01 05:15:17;;;;;;;65.05;22.05;;;5.60;99.90;;;;;;4214783;28;22553;-86
2022/12/01 05:17:17;;;;;;;59.50;21.33;;;5.60;99.90;;;;;;4202439;28;20045;-86
2022/12/01 05:21:38;;;;;;;;;;;5.40;99.90;;;;;;4202552;28;20507;-87
2022/12/01 05:23:40;;;;;;;61.58;20.88;;;5.30;99.90;;;;;;4214219;28;20328;-87
2022/12/01 05:25:41;;;;;;;64.25;21.27;;;5.30;99.90;;;;;;4185685;28;20180;-86
2022/12/01 05:27:43;;;;;;;58.47;20.23;;;5.20;99.90;;;;;;4203032;28;20044;-86
2022/12/01 05:29:43;;;;;;;57.22;20.67;;;5.10;99.90;;;;;;4213745;28;20115;-86
2022/12/01 05:31:45;;;;;;;57.60;20.58;;;5.10;99.90;;;;;;4208666;28;20603;-86
2022/12/01 05:33:46;;;;;;;61.95;21.35;;;5.00;99.90;;;;;;4214306;28;20119;-86
2022/12/01 05:35:47;;;;;;;65.25;22.10;;;5.00;99.90;;;;;;4212819;28;20377;-86
2022/12/01 05:37:48;;;;;;;67.80;23.63;;;4.90;99.90;;;;;;4217384;28;20032;-86
2022/12/01 05:39:49;;;;;;;64.00;20.77;;;4.90;99.90;;;;;;4216942;28;20117;-86
2022/12/01 05:41:49;;;;;;;62.00;21.73;;;4.80;99.90;;;;;;4210769;28;20044;-86
2022/12/01 05:43:50;;;;;;;66.22;22.45;;;5.20;99.90;;;;;;4200049;28;20141;-86
2022/12/01 05:45:51;;;;;;;62.25;21.70;;;4.70;99.90;;;;;;4200974;28;20041;-86
2022/12/01 05:47:59;;;;;;;56.80;19.63;;;4.90;99.90;;;;;;4199310;28;20504;-86
2022/12/01 05:49:59;;;;;;;62.88;19.63;;;4.70;99.90;;;;;;4182847;28;20052;-86
2022/12/01 05:52:01;;;;;;;57.13;21.15;;;4.60;99.90;;;;;;4199857;28;20048;-86
2022/12/01 05:54:02;;;;;;;65.65;22.52;;;4.60;99.90;;;;;;4199453;28;20133;-86
2022/12/01 05:56:03;;;;;;;62.83;20.95;;;4.50;99.90;;;;;;4201051;28;20045;-86
2022/12/01 05:58:04;;;;;;;63.83;22.67;;;4.50;99.90;;;;;;4200637;28;20127;-86
2022/12/01 06:00:06;;;;;;;66.32;19.40;;;4.50;99.90;;;;;;4200458;28;20040;-87
2022/12/01 06:02:08;;;;;;;66.55;21.45;;;4.40;99.90;;;;;;4199475;28;20056;-87
2022/12/01 06:04:08;;;;;;;65.28;20.95;;;4.70;99.90;;;;;;4182269;28;20048;-86
2022/12/01 06:06:10;;;;;;;55.63;19.20;;;5.00;99.90;;;;;;4200493;28;20079;-85
2022/12/01 06:08:11;;;;;;;64.53;20.88;;;4.40;99.90;;;;;;4199897;28;20436;-85
2022/12/01 06:10:14;;;;;;;59.45;19.80;;;4.40;99.90;;;;;;4198886;28;20081;-85
2022/12/01 06:12:14;;;;;;;64.45;19.65;;;4.90;99.90;;;;;;4199523;28;20052;-85
2022/12/01 06:14:15;;;;;;;51.90;20.73;;;4.40;99.90;;;;;;4199995;28;20040;-85
2022/12/01 06:16:16;;;;;;;57.63;20.50;;;4.40;99.90;;;;;;4182112;28;20468;-85
2022/12/01 06:18:16;;;;;;;57.65;20.42;;;4.40;99.90;;;;;;4199034;28;20078;-85
2022/12/01 06:20:17;;;;;;;63.38;21.38;;;4.40;99.90;;;;;;4199163;28;20135;-86
2022/12/01 06:22:18;;;;;;;65.78;20.40;;;4.40;99.90;;;;;;4199118;28;20045;-86
2022/12/01 06:24:18;;;;;;;58.22;20.33;;;4.40;99.90;;;;;;4199375;28;20098;-86
2022/12/01 06:26:19;;;;;;;55.67;19.40;;;4.50;99.90;;;;;;4198664;28;20044;-85
2022/12/01 06:28:20;;;;;;;63.97;21.20;;;4.40;99.90;;;;;;4198997;28;20165;-86
2022/12/01 06:30:21;;;;;;;53.90;19.38;;;4.40;99.90;;;;;;4202957;28;20201;-86
2022/12/01 06:32:23;;;;;;;55.00;19.20;;;4.40;99.90;;;;;;4199022;28;20535;-85
2022/12/01 06:34:25;;;;;;;56.85;19.50;;;4.40;99.90;;;;;;4215404;28;20067;-86
2022/12/01 06:36:26;;;;;;;55.75;18.15;;;4.50;99.90;;;;;;4214779;28;20539;-86
2022/12/01 06:38:34;;;;;;;51.50;17.73;;;4.60;99.90;;;;;;4215709;28;20475;-86
2022/12/01 06:40:35;;;;;;;47.53;17.10;;;4.30;99.90;;;;;;4216927;28;20536;-85
2022/12/01 06:42:36;;;;;;;45.42;17.80;;;4.30;99.90;;;;;;4215555;28;20101;-86
2022/12/01 06:44:38;;;;;;;45.40;14.70;;;4.30;99.90;;;;;;4199046;28;20044;-86
2022/12/01 06:46:39;;;;;;;44.60;16.27;;;4.30;99.90;;;;;;4215420;28;20052;-86
2022/12/01 06:48:40;;;;;;;39.75;15.90;;;4.60;99.90;;;;;;4216689;28;20044;-85
2022/12/01 06:50:42;;;;;;;49.92;15.65;;;4.20;99.90;;;;;;4226245;28;20058;-86
2022/12/01 06:52:42;;;;;;;49.53;16.90;;;4.30;99.90;;;;;;4215844;28;20790;-87
2022/12/01 06:54:44;;;;;;;45.42;16.35;;;4.20;99.90;;;;;;4215827;28;20113;-87
2022/12/01 06:56:45;;;;;;;47.20;16.13;;;4.20;99.90;;;;;;4233256;28;20365;-85
2022/12/01 06:58:47;;;;;;;41.63;15.13;;;4.20;99.90;;;;;;4199053;28;20040;-85
2022/12/01 07:00:48;;;;;;;39.28;16.27;;;4.10;99.90;;;;;;4234188;28;20051;-86
2022/12/01 07:02:49;;;;;;;35.55;14.32;;;4.10;99.90;;;;;;4198992;28;20084;-86
2022/12/01 07:04:50;;;;;;;34.45;14.32;;;4.00;99.90;;;;;;4233630;28;20126;-86
2022/12/01 07:06:52;;;;;;;37.63;14.48;;;4.00;99.90;;;;;;4199053;28;20067;-86
2022/12/01 07:08:53;;;;;;;35.22;13.48;;;3.90;99.90;;;;;;4215818;28;20048;-86
2022/12/01 07:11:02;;;;;;;32.17;12.57;;;3.90;99.90;;;;;;4199176;28;20058;-86
2022/12/01 07:13:04;;;;;;;;;;;3.80;99.90;;;;;;4198601;28;20127;-86
2022/12/01 07:15:06;;;;;;;21.65;10.00;;;3.80;99.90;;;;;;4215754;28;20046;-86
2022/12/01 07:17:08;;;;;;;24.83;9.00;;;3.70;99.90;;;;;;4233137;28;20048;-86
2022/12/01 07:19:10;;;;;;;24.15;9.30;;;4.50;99.90;;;;;;4215495;28;20515;-87
2022/12/01 07:21:12;;;;;;;22.55;8.88;;;3.60;99.90;;;;;;4215419;28;20109;-85
2022/12/01 07:23:14;;;;;;;22.17;9.18;;;3.60;99.90;;;;;;4197849;28;20048;-87
2022/12/01 07:25:15;;;;;;;21.50;9.40;;;3.60;99.90;;;;;;4233104;28;20500;-86
2022/12/01 07:27:17;;;;;;;24.30;9.68;;;3.50;99.90;;;;;;4198219;28;20131;-86
2022/12/01 07:29:18;;;;;;;19.95;8.00;;;3.50;99.90;;;;;;4215574;28;20059;-87
2022/12/01 07:31:19;;;;;;;21.95;8.10;;;3.50;99.90;;;;;;4214674;28;20515;-87
2022/12/01 07:33:20;;;;;;;19.50;7.97;;;3.10;99.90;;;;;;4214375;28;20044;-86
2022/12/01 07:35:21;;;;;;;21.38;8.48;;;3.40;99.90;;;;;;4215436;28;20178;-88
2022/12/01 07:37:23;;;;;;;20.20;8.70;;;4.20;99.90;;;;;;4233410;28;20044;-86
2022/12/01 07:39:23;;;;;;;17.20;7.30;;;3.30;99.90;;;;;;4215347;28;20066;-87
2022/12/01 07:41:25;;;;;;;20.88;7.75;;;3.30;99.90;;;;;;4232567;28;20067;-88
2022/12/01 07:43:28;;;;;;;17.40;7.80;;;3.30;99.90;;;;;;4233756;28;20048;-87
2022/12/01 07:45:29;;;;;;;19.95;8.88;;;3.20;99.90;;;;;;4215877;28;20055;-87
2022/12/01 07:47:31;;;;;;;22.42;8.10;;;3.20;99.90;;;;;;4233180;28;20088;-86
2022/12/01 07:49:34;;;;;;;17.73;7.78;;;3.20;99.90;;;;;;4215726;28;20048;-87
2022/12/01 07:51:35;;;;;;;20.50;8.05;;;3.30;99.90;;;;;;4233234;28;20050;-86
2022/12/01 07:53:36;;;;;;;21.95;8.82;;;3.20;99.90;;;;;;4197686;28;20044;-87
2022/12/01 07:55:38;;;;;;;19.40;8.25;;;3.60;99.90;;;;;;4215075;28;20060;-88
2022/12/01 07:57:40;;;;;;;22.50;8.75;;;3.10;99.90;;;;;;4233181;28;20040;-87
2022/12/01 07:59:40;;;;;;;19.80;8.38;;;3.10;99.90;;;;;;4233176;28;20065;-86
2022/12/01 08:01:42;;;;;;;23.83;7.88;;;3.10;99.90;;;;;;4232619;28;20040;-85
2022/12/01 08:03:43;;;;;;;18.25;7.85;;;3.10;99.90;;;;;;4232946;28;20039;-85
2022/12/01 08:05:54;;;;;;;17.25;7.82;;;3.10;99.90;;;;;;4198400;28;20528;-87
2022/12/01 08:07:56;;;;;;;17.05;8.73;;;3.10;99.90;;;;;;4200496;28;20044;-86
2022/12/01 08:09:56;;;;;;;21.70;8.63;;;3.10;99.90;;;;;;4217944;28;20052;-86
2022/12/01 08:11:58;;;;;;;17.98;7.82;;;3.70;99.90;;;;;;4218435;28;20052;-86
2022/12/01 08:13:59;;;;;;;15.70;7.43;;;3.10;99.90;;;;;;4236739;28;20071;-85
2022/12/01 08:16:04;;;;;;;15.85;7.53;;;3.10;99.90;;;;;;4236525;28;20043;-85
2022/12/01 08:18:04;;;;;;;20.17;8.43;;;3.10;99.90;;;;;;4218927;28;20503;-86
2022/12/01 08:20:06;;;;;;;23.00;8.52;;;3.10;99.90;;;;;;4201239;28;20048;-86
2022/12/01 08:22:07;;;;;;;18.23;8.40;;;3.10;99.90;;;;;;4218901;28;20546;-87
2022/12/01 08:24:09;;;;;;;19.35;8.27;;;3.20;99.90;;;;;;4236637;28;20083;-87
2022/12/01 08:26:15;;;;;;;18.80;8.65;;;3.10;99.90;;;;;;4201305;28;20044;-87
2022/12/01 08:28:15;;;;;;;16.75;7.50;;;3.10;99.90;;;;;;4236762;28;20404;-86
2022/12/01 08:30:16;;;;;;;22.75;9.00;;;3.10;99.90;;;;;;4210120;28;20052;-86
2022/12/01 08:32:18;;;;;;;21.33;8.70;;;3.20;99.90;;;;;;4245625;27;20047;-84
2022/12/01 08:34:19;;;;;;;20.55;8.75;;;3.30;99.90;;;;;;4253180;27;20047;-85
2022/12/01 08:36:21;;;;;;;28.00;10.55;;;3.50;99.90;;;;;;4235188;28;20128;-85
2022/12/01 08:38:23;;;;;;;22.33;9.40;;;3.60;99.90;;;;;;4253472;27;20070;-86
2022/12/01 08:40:25;;;;;;;27.35;9.80;;;3.70;99.90;;;;;;4252418;27;20039;-85
2022/12/01 08:42:26;;;;;;;22.52;9.40;;;3.90;99.90;;;;;;4233727;28;20044;-86
2022/12/01 08:44:27;;;;;;;23.88;9.27;;;4.00;99.90;;;;;;4218007;28;20124;-86
2022/12/01 08:46:34;;;;;;;18.00;8.13;;;4.30;99.90;;;;;;4251770;27;20043;-86
2022/12/01 08:48:36;;;;;;;20.98;7.80;;;4.60;99.90;;;;;;4233352;28;20452;-86
2022/12/01 08:50:37;;;;;;;20.63;7.80;;;4.90;99.90;;;;;;4234111;28;20055;-86
2022/12/01 08:52:38;;;;;;;20.08;8.52;;;5.30;99.90;;;;;;4234495;28;20051;-86
2022/12/01 08:54:39;;;;;;;17.67;7.95;;;5.80;99.90;;;;;;4234230;28;20539;-86
2022/12/01 08:56:43;;;;;;;16.52;7.53;;;6.40;99.90;;;;;;4233713;28;20039;-86
2022/12/01 08:58:44;;;;;;;19.27;8.45;;;6.90;99.90;;;;;;4233572;28;20051;-86
2022/12/01 09:00:44;;;;;;;16.65;7.55;;;7.50;99.90;;;;;;4251922;27;20140;-87
2022/12/01 09:02:45;;;;;;;15.27;7.07;;;8.10;99.90;;;;;;4217450;28;20058;-86
2022/12/01 09:04:46;;;;;;;18.27;7.00;;;8.70;99.90;;;;;;4233391;28;20209;-86
2022/12/01 09:06:48;;;;;;;14.10;7.03;;;9.30;99.90;;;;;;4251700;27;20418;-86
2022/12/01 09:08:49;;;;;;;17.80;7.68;;;9.80;99.90;;;;;;4233962;28;20200;-86
2022/12/01 09:10:51;;;;;;;15.80;7.45;;;10.20;99.90;;;;;;4252455;27;20043;-86
2022/12/01 09:12:51;;;;;;;13.70;7.22;;;10.70;99.90;;;;;;4216639;28;20400;-86
2022/12/01 09:14:53;;;;;;;16.55;7.15;;;11.10;99.90;;;;;;4252217;27;20074;-85
2022/12/01 09:16:54;;;;;;;13.38;6.18;;;11.50;99.90;;;;;;4233469;28;20040;-86
2022/12/01 09:18:55;;;;;;;15.77;6.97;;;11.80;99.90;;;;;;4232249;28;20055;-86
2022/12/01 09:20:56;;;;;;;16.33;7.20;;;12.10;99.90;;;;;;4245935;27;20039;-86
2022/12/01 09:22:57;;;;;;;15.98;6.47;;;12.40;99.90;;;;;;4235486;28;20047;-87
2022/12/01 09:24:57;;;;;;;14.73;7.53;;;12.60;99.90;;;;;;4241552;27;20035;-86
2022/12/01 09:26:59;;;;;;;15.27;6.75;;;12.80;99.90;;;;;;4233720;28;20057;-86
2022/12/01 09:29:08;;;;;;;16.25;6.40;;;13.00;99.90;;;;;;4234215;28;20054;-86
2022/12/01 09:31:11;;;;;;;14.55;7.05;;;13.10;99.90;;;;;;4222851;28;20084;-87
2022/12/01 09:33:13;;;;;;;14.35;6.72;;;13.30;99.90;;;;;;4217203;28;20068;-86
2022/12/01 09:35:13;;;;;;;13.73;6.28;;;13.30;99.90;;;;;;4217010;28;20087;-86
2022/12/01 09:37:14;;;;;;;13.10;6.57;;;13.30;99.90;;;;;;4208346;28;20404;-86
2022/12/01 09:39:18;;;;;;;16.58;6.47;;;13.20;99.90;;;;;;4234158;28;20040;-86
2022/12/01 09:41:26;;;;;;;16.17;6.93;;;13.10;99.90;;;;;;4235297;28;20051;-87
2022/12/01 09:43:32;;;;;;;16.17;7.23;;;13.00;99.90;;;;;;4213033;28;20044;-86
2022/12/01 09:45:38;;;;;;;15.13;7.68;;;12.70;99.90;;;;;;4200523;28;20142;-86
2022/12/01 09:47:41;;;;;;;12.63;6.63;;;12.40;99.90;;;;;;4235622;28;20439;-86
2022/12/01 09:50:23;;;;;;;15.02;7.70;;;12.20;99.90;;;;;;4215165;28;20122;-86
2022/12/01 09:52:27;;;;;;;15.50;7.10;;;11.80;99.90;;;;;;4197772;28;20056;-86
2022/12/01 09:54:28;;;;;;;14.00;7.80;;;11.50;99.90;;;;;;4232287;28;20040;-86
2022/12/01 09:56:34;;;;;;;15.05;7.60;;;11.30;99.90;;;;;;4214786;28;20083;-86
2022/12/01 09:58:35;;;;;;;16.48;8.00;;;11.20;99.90;;;;;;4217352;28;20536;-86
2022/12/01 10:00:41;;;;;;;14.73;8.05;;;11.10;99.90;;;;;;4221452;28;20039;-86
2022/12/01 10:03:14;;;;;;;20.00;8.27;;;11.10;99.90;;;;;;4231506;28;20044;-86
2022/12/01 10:05:19;;;;;;;14.27;7.45;;;11.10;99.90;;;;;;4176159;28;20094;-87
2022/12/01 10:07:31;;;;;;;15.25;7.57;;;11.10;99.90;;;;;;4230709;28;20126;-86
2022/12/01 10:09:35;;;;;;;12.15;6.63;;;11.10;99.90;;;;;;4213432;28;20082;-86
2022/12/01 10:11:41;;;;;;;21.30;8.40;;;11.10;99.90;;;;;;4213752;28;20117;-87
2022/12/01 10:13:42;;;;;;;13.93;7.72;;;11.40;99.90;;;;;;4230890;28;20036;-86
2022/12/01 10:16:09;;;;;;;13.85;6.90;;;11.10;99.90;;;;;;4249452;27;20131;-86
2022/12/01 10:18:36;;;;;;;13.95;7.45;;;11.20;99.90;;;;;;4237256;27;20055;-86
2022/12/01 10:21:08;;;;;;;15.68;7.75;;;11.30;99.90;;;;;;4200013;28;20066;-86
2022/12/01 10:23:08;;;;;;;17.80;7.90;;;11.40;99.90;;;;;;4214503;28;20134;-87
2022/12/01 10:25:16;;;;;;;15.13;7.72;;;11.30;99.90;;;;;;4221518;28;20065;-88
2022/12/01 10:27:22;;;;;;;15.80;8.05;;;11.20;99.90;;;;;;4233189;28;20098;-88
2022/12/01 10:29:40;;;;;;;19.35;8.43;;;11.10;99.90;;;;;;4230291;28;20091;-87
2022/12/01 10:31:57;;;;;;;18.45;8.27;;;10.80;99.90;;;;;;4214497;28;20114;-88
2022/12/01 10:34:14;;;;;;;19.15;7.50;;;10.60;99.90;;;;;;4233020;28;20043;-88
2022/12/01 10:36:15;;;;;;;18.42;8.48;;;10.20;99.90;;;;;;4223674;28;20067;-87
2022/12/01 10:38:36;;;;;;;17.23;8.90;;;10.00;99.90;;;;;;4220749;28;20059;-87
2022/12/01 10:40:38;;;;;;;20.08;8.82;;;9.80;99.90;;;;;;4226614;28;20134;-86
2022/12/01 10:42:41;;;;;;;20.15;8.77;;;9.60;99.90;;;;;;4216400;28;20052;-86
2022/12/01 10:44:44;;;;;;;18.15;8.75;;;9.40;99.90;;;;;;4234135;28;20047;-87
2022/12/01 10:46:54;;;;;;;18.50;8.55;;;9.30;99.90;;;;;;4218382;28;20114;-86
2022/12/01 10:49:07;;;;;;;21.67;9.70;;;9.30;99.90;;;;;;4235352;28;20431;-87